Los Angeles, CA (90077)

3:53 AM PST on December 09, 2016 (GMT -0800)
Bel Air (Stone Canyon) | | Change Station

Elev 879 ft 34.10 °N, 118.46 °W | Updated 9 seconds ago

Partly Cloudy
Partly Cloudy
51.8 °F
Feels Like 51.8 °F
N
0.0
Wind Variable Wind from SW
Gusts 0.0 mph

Today
High -- | Low -- °F
--% Chance of Precip.
Yesterday
High -- | Low -- °F
Precip. -- in
Pressure 30.25 in
Visibility 10.0 miles
Clouds Few 1800 ft
Overcast 8500 ft
Dew Point 51 °F
Humidity 98%
Rainfall 0.00 in
Snow Depth Not available.
6:48 AM 4:44 PM
Waxing Gibbous, 73% visible
METAR KSMO 091151Z AUTO 04003KT 10SM FEW018 OVC085 11/10 A3025 RMK AO2 SLP243 T01110100 10133 20111 58002 $
Pressure 30.25 in
Visibility 10.0 miles
Clouds Few 1800 ft
Overcast 8500 ft
Dew Point 51 °F
Humidity 98%
Rainfall 0.00 in
Snow Depth Not available.
6:48 AM 4:44 PM
Waxing Gibbous, 73% visible
METAR KSMO 091151Z AUTO 04003KT 10SM FEW018 OVC085 11/10 A3025 RMK AO2 SLP243 T01110100 10133 20111 58002 $

10-Day Weather Forecast

Almanac

Astronomy

Dec. 09, 2016 Rise Set
Actual Time
Civil Twilight
Nautical Twilight
Astronomical Twilight
Moon
Length of Visible Light
Length of Day
Tomorrow will be .
, % of the Moon is Illuminated

Today's Extremes

State Highs State Lows

Community

WunderPhotos

Upload Photos

1,956,407 photos uploaded!

WunderBlog® & News

Nearby

Air Quality

  Air Quality AQ Index Pollutant
Not available.

Snow Depth

Station Depth Elevation

Earthquake Activity

City Distance Mag. Time & Date
Minimum magnitude displayed is 2.5.

Coastal Water Temperatures

Place Temperature

Stations

Nearby Weather Stations

Station Location Temp. Windchill Dew Point Humidity Wind Precip. Elev Updated Type
                   

Watches & Warnings

There are currently no watches in effect.